Wheeler Army Airfield, Hawaii
Current Conditions -  °F | °C
As of 1:58 PM on Wednesday 26 Nov 2014 (Local Time) from PHHI Reporting Station
Scattered Clouds Scattered Clouds  
Wind Chill: 73°   Ceiling: Unl
Heat Index: 73°   Visibility: 10mi
Dew Point: 60°   Wind: 13mph
Humidity: 64%   Direction: 30°NNE
Pressure: 30.03"   Gusts: NA
Location:  21.4859°N, 158.036°W
Report Text: PHHI 262358Z AUTO 03011KT 10SM FEW029 SCT038 23/16 A3003 RMK AO2 DZB2310E2320B2339E2348 SLP163 P0000 60000 T02280157 10238 20204 57023 $
Loading
Personal Weather Stations






























Interactive Weather Map New forecast layout! Learn more

10-Day Weather Forecast

Advertisements
Track Severe Weather on mobile